sensor_id;sensor_type;location;lat;lon;timestamp;P1;durP1;ratioP1;P2;durP2;ratioP2
76447;SDS011;65284;51.040;13.722;2024-01-10T00:00:01;57.47;;;21.23;;
76447;SDS011;65284;51.040;13.722;2024-01-10T00:02:27;62.42;;;21.95;;
76447;SDS011;65284;51.040;13.722;2024-01-10T00:04:54;63.55;;;21.40;;
76447;SDS011;65284;51.040;13.722;2024-01-10T00:07:20;61.90;;;20.85;;
76447;SDS011;65284;51.040;13.722;2024-01-10T00:09:47;61.38;;;21.40;;
76447;SDS011;65284;51.040;13.722;2024-01-10T00:12:13;65.80;;;21.73;;
76447;SDS011;65284;51.040;13.722;2024-01-10T00:14:40;64.97;;;22.70;;
76447;SDS011;65284;51.040;13.722;2024-01-10T00:17:06;65.10;;;21.58;;
76447;SDS011;65284;51.040;13.722;2024-01-10T00:19:33;65.10;;;21.23;;
76447;SDS011;65284;51.040;13.722;2024-01-10T00:22:00;68.25;;;22.45;;
76447;SDS011;65284;51.040;13.722;2024-01-10T00:24:26;68.55;;;22.58;;
76447;SDS011;65284;51.040;13.722;2024-01-10T00:26:53;67.55;;;23.48;;
76447;SDS011;65284;51.040;13.722;2024-01-10T00:29:19;60.88;;;22.70;;
76447;SDS011;65284;51.040;13.722;2024-01-10T00:31:46;64.55;;;22.30;;
76447;SDS011;65284;51.040;13.722;2024-01-10T00:34:12;68.38;;;23.60;;
76447;SDS011;65284;51.040;13.722;2024-01-10T00:36:39;71.35;;;24.52;;
76447;SDS011;65284;51.040;13.722;2024-01-10T00:39:06;65.47;;;23.77;;
76447;SDS011;65284;51.040;13.722;2024-01-10T00:41:32;65.32;;;22.33;;
76447;SDS011;65284;51.040;13.722;2024-01-10T00:43:59;74.80;;;24.90;;
76447;SDS011;65284;51.040;13.722;2024-01-10T00:46:25;69.68;;;24.48;;
76447;SDS011;65284;51.040;13.722;2024-01-10T00:48:52;74.10;;;24.65;;
76447;SDS011;65284;51.040;13.722;2024-01-10T00:51:19;74.63;;;23.95;;
76447;SDS011;65284;51.040;13.722;2024-01-10T00:53:46;71.13;;;24.08;;
76447;SDS011;65284;51.040;13.722;2024-01-10T00:56:12;74.05;;;24.85;;
76447;SDS011;65284;51.040;13.722;2024-01-10T00:58:39;74.10;;;24.23;;
76447;SDS011;65284;51.040;13.722;2024-01-10T01:01:05;73.07;;;24.00;;
76447;SDS011;65284;51.040;13.722;2024-01-10T01:03:32;71.15;;;23.35;;
76447;SDS011;65284;51.040;13.722;2024-01-10T01:05:59;76.00;;;25.73;;
76447;SDS011;65284;51.040;13.722;2024-01-10T01:08:25;70.13;;;24.48;;
76447;SDS011;65284;51.040;13.722;2024-01-10T01:10:52;67.85;;;24.08;;
76447;SDS011;65284;51.040;13.722;2024-01-10T01:13:18;71.00;;;23.60;;
76447;SDS011;65284;51.040;13.722;2024-01-10T01:15:45;68.47;;;23.92;;
76447;SDS011;65284;51.040;13.722;2024-01-10T01:18:11;78.53;;;26.20;;
76447;SDS011;65284;51.040;13.722;2024-01-10T01:20:39;66.53;;;23.73;;
76447;SDS011;65284;51.040;13.722;2024-01-10T01:23:05;71.00;;;25.02;;
76447;SDS011;65284;51.040;13.722;2024-01-10T01:25:32;73.43;;;24.60;;
76447;SDS011;65284;51.040;13.722;2024-01-10T01:27:58;71.53;;;25.38;;
76447;SDS011;65284;51.040;13.722;2024-01-10T01:30:25;67.38;;;23.10;;
76447;SDS011;65284;51.040;13.722;2024-01-10T01:32:52;72.22;;;23.95;;
76447;SDS011;65284;51.040;13.722;2024-01-10T01:35:19;71.50;;;24.15;;
76447;SDS011;65284;51.040;13.722;2024-01-10T01:37:49;70.22;;;23.67;;
76447;SDS011;65284;51.040;13.722;2024-01-10T01:40:16;65.18;;;24.02;;
76447;SDS011;65284;51.040;13.722;2024-01-10T01:42:43;70.78;;;25.10;;
76447;SDS011;65284;51.040;13.722;2024-01-10T01:45:12;71.63;;;22.23;;
76447;SDS011;65284;51.040;13.722;2024-01-10T01:47:39;71.47;;;23.63;;
76447;SDS011;65284;51.040;13.722;2024-01-10T01:50:06;69.50;;;23.40;;
76447;SDS011;65284;51.040;13.722;2024-01-10T01:52:33;66.10;;;23.10;;
76447;SDS011;65284;51.040;13.722;2024-01-10T01:55:01;73.25;;;24.67;;
76447;SDS011;65284;51.040;13.722;2024-01-10T01:57:28;73.97;;;23.92;;
76447;SDS011;65284;51.040;13.722;2024-01-10T01:59:55;70.82;;;23.80;;
76447;SDS011;65284;51.040;13.722;2024-01-10T02:02:22;72.32;;;23.92;;
76447;SDS011;65284;51.040;13.722;2024-01-10T02:04:49;72.85;;;24.15;;
76447;SDS011;65284;51.040;13.722;2024-01-10T02:07:16;67.40;;;22.85;;
76447;SDS011;65284;51.040;13.722;2024-01-10T02:09:43;67.65;;;24.08;;
76447;SDS011;65284;51.040;13.722;2024-01-10T02:12:09;64.55;;;23.20;;
76447;SDS011;65284;51.040;13.722;2024-01-10T02:14:36;62.88;;;22.70;;
76447;SDS011;65284;51.040;13.722;2024-01-10T02:17:02;70.30;;;21.65;;
76447;SDS011;65284;51.040;13.722;2024-01-10T02:19:29;62.38;;;22.48;;
76447;SDS011;65284;51.040;13.722;2024-01-10T02:21:58;70.78;;;22.85;;
76447;SDS011;65284;51.040;13.722;2024-01-10T02:24:25;69.68;;;22.83;;
76447;SDS011;65284;51.040;13.722;2024-01-10T02:26:51;61.28;;;21.63;;
76447;SDS011;65284;51.040;13.722;2024-01-10T02:29:18;64.53;;;20.85;;
76447;SDS011;65284;51.040;13.722;2024-01-10T02:31:45;68.30;;;22.15;;
76447;SDS011;65284;51.040;13.722;2024-01-10T02:34:11;64.68;;;22.23;;
76447;SDS011;65284;51.040;13.722;2024-01-10T02:36:38;62.85;;;20.67;;
76447;SDS011;65284;51.040;13.722;2024-01-10T02:39:04;63.05;;;21.60;;
76447;SDS011;65284;51.040;13.722;2024-01-10T02:41:31;60.92;;;21.55;;
76447;SDS011;65284;51.040;13.722;2024-01-10T02:43:58;61.45;;;21.52;;
76447;SDS011;65284;51.040;13.722;2024-01-10T02:46:25;61.83;;;20.33;;
76447;SDS011;65284;51.040;13.722;2024-01-10T02:48:54;61.30;;;19.73;;
76447;SDS011;65284;51.040;13.722;2024-01-10T02:51:22;56.22;;;19.13;;
76447;SDS011;65284;51.040;13.722;2024-01-10T02:53:48;56.13;;;17.98;;
76447;SDS011;65284;51.040;13.722;2024-01-10T02:56:15;56.03;;;20.10;;
76447;SDS011;65284;51.040;13.722;2024-01-10T02:58:41;62.33;;;20.77;;
76447;SDS011;65284;51.040;13.722;2024-01-10T03:01:08;57.47;;;18.65;;
76447;SDS011;65284;51.040;13.722;2024-01-10T03:03:35;53.95;;;18.52;;
76447;SDS011;65284;51.040;13.722;2024-01-10T03:06:02;57.17;;;18.50;;
76447;SDS011;65284;51.040;13.722;2024-01-10T03:08:29;51.97;;;18.00;;
76447;SDS011;65284;51.040;13.722;2024-01-10T03:10:55;63.85;;;20.92;;
76447;SDS011;65284;51.040;13.722;2024-01-10T03:13:22;64.60;;;22.05;;
76447;SDS011;65284;51.040;13.722;2024-01-10T03:15:48;60.83;;;20.63;;
76447;SDS011;65284;51.040;13.722;2024-01-10T03:18:15;62.22;;;20.75;;
76447;SDS011;65284;51.040;13.722;2024-01-10T03:20:41;64.03;;;20.02;;
76447;SDS011;65284;51.040;13.722;2024-01-10T03:23:08;65.88;;;21.80;;
76447;SDS011;65284;51.040;13.722;2024-01-10T03:25:34;65.72;;;21.60;;
76447;SDS011;65284;51.040;13.722;2024-01-10T03:28:01;56.88;;;19.88;;
76447;SDS011;65284;51.040;13.722;2024-01-10T03:30:28;61.65;;;21.27;;
76447;SDS011;65284;51.040;13.722;2024-01-10T03:32:54;63.00;;;21.40;;
76447;SDS011;65284;51.040;13.722;2024-01-10T03:35:21;58.83;;;21.27;;
76447;SDS011;65284;51.040;13.722;2024-01-10T03:37:47;61.20;;;21.33;;
76447;SDS011;65284;51.040;13.722;2024-01-10T03:40:14;66.45;;;21.65;;
76447;SDS011;65284;51.040;13.722;2024-01-10T03:42:40;58.40;;;20.42;;
76447;SDS011;65284;51.040;13.722;2024-01-10T03:45:07;63.72;;;21.25;;
76447;SDS011;65284;51.040;13.722;2024-01-10T03:47:33;63.63;;;21.10;;
76447;SDS011;65284;51.040;13.722;2024-01-10T03:50:00;54.75;;;19.30;;
76447;SDS011;65284;51.040;13.722;2024-01-10T03:52:27;62.50;;;21.77;;
76447;SDS011;65284;51.040;13.722;2024-01-10T03:54:54;66.00;;;21.08;;
76447;SDS011;65284;51.040;13.722;2024-01-10T03:57:21;58.55;;;20.33;;
76447;SDS011;65284;51.040;13.722;2024-01-10T03:59:47;67.18;;;21.98;;
76447;SDS011;65284;51.040;13.722;2024-01-10T04:02:14;59.97;;;21.35;;
76447;SDS011;65284;51.040;13.722;2024-01-10T04:04:40;64.43;;;21.70;;
76447;SDS011;65284;51.040;13.722;2024-01-10T04:07:07;59.28;;;21.42;;
76447;SDS011;65284;51.040;13.722;2024-01-10T04:09:34;61.22;;;20.98;;
76447;SDS011;65284;51.040;13.722;2024-01-10T04:12:01;67.00;;;20.55;;
76447;SDS011;65284;51.040;13.722;2024-01-10T04:14:27;56.00;;;18.58;;
76447;SDS011;65284;51.040;13.722;2024-01-10T04:16:54;70.93;;;22.58;;
76447;SDS011;65284;51.040;13.722;2024-01-10T04:19:21;59.40;;;20.25;;
76447;SDS011;65284;51.040;13.722;2024-01-10T04:21:47;59.05;;;20.40;;
76447;SDS011;65284;51.040;13.722;2024-01-10T04:24:14;65.28;;;21.70;;
76447;SDS011;65284;51.040;13.722;2024-01-10T04:26:40;56.13;;;19.85;;
76447;SDS011;65284;51.040;13.722;2024-01-10T04:29:07;58.50;;;19.42;;
76447;SDS011;65284;51.040;13.722;2024-01-10T04:31:34;68.95;;;20.95;;
76447;SDS011;65284;51.040;13.722;2024-01-10T04:34:02;60.20;;;21.02;;
76447;SDS011;65284;51.040;13.722;2024-01-10T04:36:28;66.65;;;21.05;;
76447;SDS011;65284;51.040;13.722;2024-01-10T04:38:55;57.35;;;21.15;;
76447;SDS011;65284;51.040;13.722;2024-01-10T04:41:21;65.45;;;21.23;;
76447;SDS011;65284;51.040;13.722;2024-01-10T04:43:48;60.50;;;21.08;;
76447;SDS011;65284;51.040;13.722;2024-01-10T04:46:15;66.38;;;20.77;;
76447;SDS011;65284;51.040;13.722;2024-01-10T04:48:41;64.05;;;20.95;;
76447;SDS011;65284;51.040;13.722;2024-01-10T04:51:08;67.68;;;21.70;;
76447;SDS011;65284;51.040;13.722;2024-01-10T04:53:35;61.25;;;20.92;;
76447;SDS011;65284;51.040;13.722;2024-01-10T04:56:01;58.58;;;21.17;;
76447;SDS011;65284;51.040;13.722;2024-01-10T04:58:28;58.45;;;20.67;;
76447;SDS011;65284;51.040;13.722;2024-01-10T05:00:55;60.50;;;20.92;;
76447;SDS011;65284;51.040;13.722;2024-01-10T05:03:22;57.00;;;19.88;;
76447;SDS011;65284;51.040;13.722;2024-01-10T05:05:49;68.30;;;20.60;;
76447;SDS011;65284;51.040;13.722;2024-01-10T05:08:16;59.38;;;20.02;;
76447;SDS011;65284;51.040;13.722;2024-01-10T05:10:47;61.67;;;20.23;;
76447;SDS011;65284;51.040;13.722;2024-01-10T05:13:13;67.28;;;19.95;;
76447;SDS011;65284;51.040;13.722;2024-01-10T05:15:40;60.65;;;21.08;;
76447;SDS011;65284;51.040;13.722;2024-01-10T05:18:06;57.38;;;20.52;;
76447;SDS011;65284;51.040;13.722;2024-01-10T05:20:33;60.83;;;19.73;;
76447;SDS011;65284;51.040;13.722;2024-01-10T05:23:00;57.50;;;19.00;;
76447;SDS011;65284;51.040;13.722;2024-01-10T05:25:27;58.85;;;20.20;;
76447;SDS011;65284;51.040;13.722;2024-01-10T05:27:55;62.08;;;20.70;;
76447;SDS011;65284;51.040;13.722;2024-01-10T05:30:22;61.70;;;20.13;;
76447;SDS011;65284;51.040;13.722;2024-01-10T05:32:53;59.28;;;20.25;;
76447;SDS011;65284;51.040;13.722;2024-01-10T05:35:20;55.38;;;19.77;;
76447;SDS011;65284;51.040;13.722;2024-01-10T05:37:46;61.53;;;19.90;;
76447;SDS011;65284;51.040;13.722;2024-01-10T05:40:13;54.83;;;18.63;;
76447;SDS011;65284;51.040;13.722;2024-01-10T05:42:40;65.43;;;19.98;;
76447;SDS011;65284;51.040;13.722;2024-01-10T05:45:06;67.78;;;21.30;;
76447;SDS011;65284;51.040;13.722;2024-01-10T05:47:33;63.40;;;20.77;;
76447;SDS011;65284;51.040;13.722;2024-01-10T05:50:00;60.28;;;19.73;;
76447;SDS011;65284;51.040;13.722;2024-01-10T05:52:27;58.00;;;20.40;;
76447;SDS011;65284;51.040;13.722;2024-01-10T05:54:53;61.83;;;19.58;;
76447;SDS011;65284;51.040;13.722;2024-01-10T05:57:20;61.22;;;21.60;;
76447;SDS011;65284;51.040;13.722;2024-01-10T05:59:47;70.60;;;20.48;;
76447;SDS011;65284;51.040;13.722;2024-01-10T06:02:14;54.25;;;18.42;;
76447;SDS011;65284;51.040;13.722;2024-01-10T06:04:43;70.97;;;25.48;;
76447;SDS011;65284;51.040;13.722;2024-01-10T06:07:09;79.93;;;25.83;;
76447;SDS011;65284;51.040;13.722;2024-01-10T06:09:36;64.50;;;21.23;;
76447;SDS011;65284;51.040;13.722;2024-01-10T06:12:03;71.78;;;22.10;;
76447;SDS011;65284;51.040;13.722;2024-01-10T06:14:29;62.22;;;21.23;;
76447;SDS011;65284;51.040;13.722;2024-01-10T06:16:56;59.75;;;21.38;;
76447;SDS011;65284;51.040;13.722;2024-01-10T06:19:25;56.47;;;20.38;;
76447;SDS011;65284;51.040;13.722;2024-01-10T06:21:52;63.80;;;20.05;;
76447;SDS011;65284;51.040;13.722;2024-01-10T06:24:19;56.38;;;20.38;;
76447;SDS011;65284;51.040;13.722;2024-01-10T06:26:46;60.75;;;19.80;;
76447;SDS011;65284;51.040;13.722;2024-01-10T06:29:13;59.00;;;20.65;;
76447;SDS011;65284;51.040;13.722;2024-01-10T06:31:39;65.60;;;20.63;;
76447;SDS011;65284;51.040;13.722;2024-01-10T06:34:06;65.38;;;20.90;;
76447;SDS011;65284;51.040;13.722;2024-01-10T06:36:33;61.47;;;19.45;;
76447;SDS011;65284;51.040;13.722;2024-01-10T06:38:59;66.82;;;21.60;;
76447;SDS011;65284;51.040;13.722;2024-01-10T06:41:28;62.20;;;21.52;;
76447;SDS011;65284;51.040;13.722;2024-01-10T06:43:55;55.05;;;20.00;;
76447;SDS011;65284;51.040;13.722;2024-01-10T06:46:21;62.63;;;20.02;;
76447;SDS011;65284;51.040;13.722;2024-01-10T06:48:48;56.22;;;20.63;;
76447;SDS011;65284;51.040;13.722;2024-01-10T06:51:16;63.08;;;20.75;;
76447;SDS011;65284;51.040;13.722;2024-01-10T06:53:42;65.53;;;21.40;;
76447;SDS011;65284;51.040;13.722;2024-01-10T06:56:09;61.50;;;20.50;;
76447;SDS011;65284;51.040;13.722;2024-01-10T06:58:36;64.13;;;20.65;;
76447;SDS011;65284;51.040;13.722;2024-01-10T07:01:03;64.68;;;20.67;;
76447;SDS011;65284;51.040;13.722;2024-01-10T07:03:32;62.08;;;20.52;;
76447;SDS011;65284;51.040;13.722;2024-01-10T07:06:01;57.40;;;19.60;;
76447;SDS011;65284;51.040;13.722;2024-01-10T07:08:27;55.45;;;19.95;;
76447;SDS011;65284;51.040;13.722;2024-01-10T07:10:54;54.60;;;20.23;;
76447;SDS011;65284;51.040;13.722;2024-01-10T07:13:22;61.70;;;21.35;;
76447;SDS011;65284;51.040;13.722;2024-01-10T07:15:49;59.33;;;20.17;;
76447;SDS011;65284;51.040;13.722;2024-01-10T07:18:18;60.90;;;21.40;;
76447;SDS011;65284;51.040;13.722;2024-01-10T07:20:45;61.53;;;20.10;;
76447;SDS011;65284;51.040;13.722;2024-01-10T07:23:12;58.40;;;20.50;;
76447;SDS011;65284;51.040;13.722;2024-01-10T07:25:38;58.80;;;20.02;;
76447;SDS011;65284;51.040;13.722;2024-01-10T07:28:05;62.40;;;20.05;;
76447;SDS011;65284;51.040;13.722;2024-01-10T07:30:31;61.70;;;20.45;;
76447;SDS011;65284;51.040;13.722;2024-01-10T07:32:59;57.65;;;19.50;;
76447;SDS011;65284;51.040;13.722;2024-01-10T07:35:26;61.97;;;20.88;;
76447;SDS011;65284;51.040;13.722;2024-01-10T07:37:54;60.42;;;19.85;;
76447;SDS011;65284;51.040;13.722;2024-01-10T07:40:20;58.83;;;19.80;;
76447;SDS011;65284;51.040;13.722;2024-01-10T07:42:47;59.97;;;20.17;;
76447;SDS011;65284;51.040;13.722;2024-01-10T07:45:13;66.82;;;21.25;;
76447;SDS011;65284;51.040;13.722;2024-01-10T07:47:40;61.22;;;21.20;;
76447;SDS011;65284;51.040;13.722;2024-01-10T07:50:07;65.20;;;20.60;;
76447;SDS011;65284;51.040;13.722;2024-01-10T07:52:35;64.68;;;20.90;;
76447;SDS011;65284;51.040;13.722;2024-01-10T07:55:02;55.90;;;20.05;;
76447;SDS011;65284;51.040;13.722;2024-01-10T07:57:33;61.70;;;20.80;;
76447;SDS011;65284;51.040;13.722;2024-01-10T08:00:05;56.58;;;19.77;;
76447;SDS011;65284;51.040;13.722;2024-01-10T08:02:39;57.42;;;20.40;;
76447;SDS011;65284;51.040;13.722;2024-01-10T08:05:06;61.78;;;21.27;;
76447;SDS011;65284;51.040;13.722;2024-01-10T08:07:36;58.67;;;20.20;;
76447;SDS011;65284;51.040;13.722;2024-01-10T08:10:07;66.45;;;21.50;;
76447;SDS011;65284;51.040;13.722;2024-01-10T08:12:36;70.32;;;21.33;;
76447;SDS011;65284;51.040;13.722;2024-01-10T08:15:04;65.78;;;22.40;;
76447;SDS011;65284;51.040;13.722;2024-01-10T08:17:32;59.67;;;21.20;;
76447;SDS011;65284;51.040;13.722;2024-01-10T08:19:59;61.50;;;21.55;;
76447;SDS011;65284;51.040;13.722;2024-01-10T08:22:27;58.97;;;20.05;;
76447;SDS011;65284;51.040;13.722;2024-01-10T08:24:53;62.80;;;20.27;;
76447;SDS011;65284;51.040;13.722;2024-01-10T08:27:22;57.95;;;19.52;;
76447;SDS011;65284;51.040;13.722;2024-01-10T08:29:49;56.53;;;19.48;;
76447;SDS011;65284;51.040;13.722;2024-01-10T08:32:15;55.10;;;18.80;;
76447;SDS011;65284;51.040;13.722;2024-01-10T08:34:43;57.97;;;19.90;;
76447;SDS011;65284;51.040;13.722;2024-01-10T08:37:11;65.32;;;19.75;;
76447;SDS011;65284;51.040;13.722;2024-01-10T08:39:37;60.67;;;20.05;;
76447;SDS011;65284;51.040;13.722;2024-01-10T08:42:04;56.17;;;20.85;;
76447;SDS011;65284;51.040;13.722;2024-01-10T08:44:30;59.60;;;19.45;;
76447;SDS011;65284;51.040;13.722;2024-01-10T08:46:57;57.80;;;19.60;;
76447;SDS011;65284;51.040;13.722;2024-01-10T08:49:24;55.75;;;19.75;;
76447;SDS011;65284;51.040;13.722;2024-01-10T08:51:50;59.20;;;20.52;;
76447;SDS011;65284;51.040;13.722;2024-01-10T08:54:17;59.13;;;20.02;;
76447;SDS011;65284;51.040;13.722;2024-01-10T08:56:46;54.63;;;19.38;;
76447;SDS011;65284;51.040;13.722;2024-01-10T08:59:12;58.70;;;20.38;;
76447;SDS011;65284;51.040;13.722;2024-01-10T09:01:39;56.70;;;20.67;;
76447;SDS011;65284;51.040;13.722;2024-01-10T09:04:06;60.75;;;20.95;;
76447;SDS011;65284;51.040;13.722;2024-01-10T09:06:33;53.20;;;18.65;;
76447;SDS011;65284;51.040;13.722;2024-01-10T09:08:59;60.80;;;19.67;;
76447;SDS011;65284;51.040;13.722;2024-01-10T09:11:26;58.15;;;20.58;;
76447;SDS011;65284;51.040;13.722;2024-01-10T09:13:53;55.03;;;19.63;;
76447;SDS011;65284;51.040;13.722;2024-01-10T09:16:19;62.35;;;21.25;;
76447;SDS011;65284;51.040;13.722;2024-01-10T09:18:46;63.00;;;21.38;;
76447;SDS011;65284;51.040;13.722;2024-01-10T09:21:13;56.00;;;19.33;;
76447;SDS011;65284;51.040;13.722;2024-01-10T09:23:39;54.47;;;18.55;;
76447;SDS011;65284;51.040;13.722;2024-01-10T09:26:07;54.15;;;18.30;;
76447;SDS011;65284;51.040;13.722;2024-01-10T09:28:35;55.33;;;18.40;;
76447;SDS011;65284;51.040;13.722;2024-01-10T09:31:01;54.33;;;18.92;;
76447;SDS011;65284;51.040;13.722;2024-01-10T09:33:28;59.17;;;19.40;;
76447;SDS011;65284;51.040;13.722;2024-01-10T09:35:55;56.78;;;18.65;;
76447;SDS011;65284;51.040;13.722;2024-01-10T09:38:24;51.45;;;17.35;;
76447;SDS011;65284;51.040;13.722;2024-01-10T09:40:51;53.00;;;18.00;;
76447;SDS011;65284;51.040;13.722;2024-01-10T09:45:55;48.03;;;16.98;;
76447;SDS011;65284;51.040;13.722;2024-01-10T09:48:25;47.72;;;16.30;;
76447;SDS011;65284;51.040;13.722;2024-01-10T09:50:52;48.25;;;16.60;;
76447;SDS011;65284;51.040;13.722;2024-01-10T09:53:22;52.70;;;17.40;;
76447;SDS011;65284;51.040;13.722;2024-01-10T09:55:50;54.63;;;17.73;;
76447;SDS011;65284;51.040;13.722;2024-01-10T09:58:17;50.80;;;17.75;;
76447;SDS011;65284;51.040;13.722;2024-01-10T10:00:43;48.97;;;17.25;;
76447;SDS011;65284;51.040;13.722;2024-01-10T10:03:10;48.45;;;16.75;;
76447;SDS011;65284;51.040;13.722;2024-01-10T10:05:40;48.90;;;17.60;;
76447;SDS011;65284;51.040;13.722;2024-01-10T10:08:10;50.13;;;18.35;;
76447;SDS011;65284;51.040;13.722;2024-01-10T10:10:38;49.80;;;18.88;;
76447;SDS011;65284;51.040;13.722;2024-01-10T10:13:09;60.30;;;19.00;;
76447;SDS011;65284;51.040;13.722;2024-01-10T10:15:40;61.08;;;20.42;;
76447;SDS011;65284;51.040;13.722;2024-01-10T10:18:13;50.33;;;18.17;;
76447;SDS011;65284;51.040;13.722;2024-01-10T10:20:40;50.78;;;17.10;;
76447;SDS011;65284;51.040;13.722;2024-01-10T10:23:07;44.83;;;16.38;;
76447;SDS011;65284;51.040;13.722;2024-01-10T10:25:42;45.97;;;16.38;;
76447;SDS011;65284;51.040;13.722;2024-01-10T10:28:09;44.33;;;16.27;;
76447;SDS011;65284;51.040;13.722;2024-01-10T10:30:51;45.95;;;15.32;;
76447;SDS011;65284;51.040;13.722;2024-01-10T10:33:18;47.35;;;15.40;;
76447;SDS011;65284;51.040;13.722;2024-01-10T10:35:45;43.60;;;14.98;;
76447;SDS011;65284;51.040;13.722;2024-01-10T10:40:41;45.10;;;14.57;;
76447;SDS011;65284;51.040;13.722;2024-01-10T10:43:11;49.42;;;15.02;;
76447;SDS011;65284;51.040;13.722;2024-01-10T10:45:41;42.65;;;15.57;;
76447;SDS011;65284;51.040;13.722;2024-01-10T10:48:18;41.63;;;15.52;;
76447;SDS011;65284;51.040;13.722;2024-01-10T10:51:05;40.13;;;14.40;;
76447;SDS011;65284;51.040;13.722;2024-01-10T10:53:35;44.00;;;15.30;;
76447;SDS011;65284;51.040;13.722;2024-01-10T10:56:03;42.75;;;15.30;;
76447;SDS011;65284;51.040;13.722;2024-01-10T10:58:32;43.70;;;15.48;;
76447;SDS011;65284;51.040;13.722;2024-01-10T11:01:05;45.75;;;15.38;;
76447;SDS011;65284;51.040;13.722;2024-01-10T11:03:34;43.58;;;15.05;;
76447;SDS011;65284;51.040;13.722;2024-01-10T11:06:04;43.67;;;15.82;;
76447;SDS011;65284;51.040;13.722;2024-01-10T11:08:35;47.95;;;15.60;;
76447;SDS011;65284;51.040;13.722;2024-01-10T11:11:08;43.67;;;14.57;;
76447;SDS011;65284;51.040;13.722;2024-01-10T11:14:07;39.80;;;13.63;;
76447;SDS011;65284;51.040;13.722;2024-01-10T11:16:52;40.38;;;14.38;;
76447;SDS011;65284;51.040;13.722;2024-01-10T11:25:17;52.47;;;18.75;;
76447;SDS011;65284;51.040;13.722;2024-01-10T11:27:44;54.53;;;19.30;;
76447;SDS011;65284;51.040;13.722;2024-01-10T11:30:11;55.47;;;20.08;;
76447;SDS011;65284;51.040;13.722;2024-01-10T11:32:38;53.58;;;18.40;;
76447;SDS011;65284;51.040;13.722;2024-01-10T11:35:05;56.55;;;19.73;;
76447;SDS011;65284;51.040;13.722;2024-01-10T11:37:45;52.40;;;17.52;;
76447;SDS011;65284;51.040;13.722;2024-01-10T11:40:13;45.13;;;18.08;;
76447;SDS011;65284;51.040;13.722;2024-01-10T11:42:44;48.58;;;18.08;;
76447;SDS011;65284;51.040;13.722;2024-01-10T11:47:57;50.42;;;17.17;;
76447;SDS011;65284;51.040;13.722;2024-01-10T11:50:23;48.95;;;17.83;;
76447;SDS011;65284;51.040;13.722;2024-01-10T11:52:52;45.45;;;17.60;;
76447;SDS011;65284;51.040;13.722;2024-01-10T11:58:18;46.33;;;17.27;;
76447;SDS011;65284;51.040;13.722;2024-01-10T12:00:45;42.35;;;15.93;;
76447;SDS011;65284;51.040;13.722;2024-01-10T12:03:12;40.97;;;15.63;;
76447;SDS011;65284;51.040;13.722;2024-01-10T12:05:39;43.55;;;15.70;;
76447;SDS011;65284;51.040;13.722;2024-01-10T12:08:07;38.63;;;15.02;;
76447;SDS011;65284;51.040;13.722;2024-01-10T12:10:34;43.22;;;15.60;;
76447;SDS011;65284;51.040;13.722;2024-01-10T12:13:03;45.50;;;16.80;;
76447;SDS011;65284;51.040;13.722;2024-01-10T12:15:29;41.47;;;16.17;;
76447;SDS011;65284;51.040;13.722;2024-01-10T12:17:56;38.70;;;15.35;;
76447;SDS011;65284;51.040;13.722;2024-01-10T12:20:23;35.67;;;14.55;;
76447;SDS011;65284;51.040;13.722;2024-01-10T12:22:49;33.72;;;13.73;;
76447;SDS011;65284;51.040;13.722;2024-01-10T12:25:16;36.83;;;13.77;;
76447;SDS011;65284;51.040;13.722;2024-01-10T12:27:42;40.75;;;14.52;;
76447;SDS011;65284;51.040;13.722;2024-01-10T12:30:10;38.83;;;13.27;;
76447;SDS011;65284;51.040;13.722;2024-01-10T12:32:37;40.10;;;14.30;;
76447;SDS011;65284;51.040;13.722;2024-01-10T12:35:04;35.67;;;13.88;;
76447;SDS011;65284;51.040;13.722;2024-01-10T12:37:31;40.53;;;13.10;;
76447;SDS011;65284;51.040;13.722;2024-01-10T12:39:58;36.42;;;13.98;;
76447;SDS011;65284;51.040;13.722;2024-01-10T12:42:26;33.53;;;13.13;;
76447;SDS011;65284;51.040;13.722;2024-01-10T12:44:52;37.58;;;14.15;;
76447;SDS011;65284;51.040;13.722;2024-01-10T12:47:20;35.83;;;14.18;;
76447;SDS011;65284;51.040;13.722;2024-01-10T12:49:48;38.95;;;13.80;;
76447;SDS011;65284;51.040;13.722;2024-01-10T12:52:15;37.75;;;14.10;;
76447;SDS011;65284;51.040;13.722;2024-01-10T12:54:46;41.97;;;15.27;;
76447;SDS011;65284;51.040;13.722;2024-01-10T12:57:13;48.17;;;17.10;;
76447;SDS011;65284;51.040;13.722;2024-01-10T12:59:39;49.28;;;17.30;;
76447;SDS011;65284;51.040;13.722;2024-01-10T13:02:06;40.28;;;17.38;;
76447;SDS011;65284;51.040;13.722;2024-01-10T13:04:33;45.47;;;17.38;;
76447;SDS011;65284;51.040;13.722;2024-01-10T13:06:59;41.92;;;15.98;;
76447;SDS011;65284;51.040;13.722;2024-01-10T13:09:26;42.85;;;15.30;;
76447;SDS011;65284;51.040;13.722;2024-01-10T13:11:53;44.13;;;16.17;;
76447;SDS011;65284;51.040;13.722;2024-01-10T13:14:20;43.92;;;15.65;;
76447;SDS011;65284;51.040;13.722;2024-01-10T13:16:46;42.28;;;16.08;;
76447;SDS011;65284;51.040;13.722;2024-01-10T13:19:25;42.53;;;15.73;;
76447;SDS011;65284;51.040;13.722;2024-01-10T13:21:52;39.55;;;15.65;;
76447;SDS011;65284;51.040;13.722;2024-01-10T13:24:19;39.58;;;16.55;;
76447;SDS011;65284;51.040;13.722;2024-01-10T13:26:46;43.80;;;17.33;;
76447;SDS011;65284;51.040;13.722;2024-01-10T13:29:13;42.10;;;17.00;;
76447;SDS011;65284;51.040;13.722;2024-01-10T13:31:40;37.95;;;14.25;;
76447;SDS011;65284;51.040;13.722;2024-01-10T13:34:06;39.03;;;15.25;;
76447;SDS011;65284;51.040;13.722;2024-01-10T13:36:33;38.00;;;14.60;;
76447;SDS011;65284;51.040;13.722;2024-01-10T13:38:59;36.05;;;14.07;;
76447;SDS011;65284;51.040;13.722;2024-01-10T13:41:26;38.03;;;14.93;;
76447;SDS011;65284;51.040;13.722;2024-01-10T13:43:53;34.63;;;13.13;;
76447;SDS011;65284;51.040;13.722;2024-01-10T13:46:19;38.38;;;14.57;;
76447;SDS011;65284;51.040;13.722;2024-01-10T13:48:46;37.30;;;14.15;;
76447;SDS011;65284;51.040;13.722;2024-01-10T13:51:12;37.90;;;13.65;;
76447;SDS011;65284;51.040;13.722;2024-01-10T13:53:39;37.03;;;13.80;;
76447;SDS011;65284;51.040;13.722;2024-01-10T13:56:05;38.15;;;13.85;;
76447;SDS011;65284;51.040;13.722;2024-01-10T13:58:32;25.20;;;9.80;;
76447;SDS011;65284;51.040;13.722;2024-01-10T14:00:59;24.45;;;8.43;;
76447;SDS011;65284;51.040;13.722;2024-01-10T14:03:26;26.80;;;10.38;;
76447;SDS011;65284;51.040;13.722;2024-01-10T14:05:57;23.42;;;8.93;;
76447;SDS011;65284;51.040;13.722;2024-01-10T14:08:23;18.50;;;7.40;;
76447;SDS011;65284;51.040;13.722;2024-01-10T14:10:51;17.88;;;7.05;;
76447;SDS011;65284;51.040;13.722;2024-01-10T14:13:17;18.38;;;7.45;;
76447;SDS011;65284;51.040;13.722;2024-01-10T14:15:44;14.63;;;6.35;;
76447;SDS011;65284;51.040;13.722;2024-01-10T14:18:11;17.80;;;5.18;;
76447;SDS011;65284;51.040;13.722;2024-01-10T14:20:37;12.98;;;4.85;;
76447;SDS011;65284;51.040;13.722;2024-01-10T14:23:07;11.18;;;5.03;;
76447;SDS011;65284;51.040;13.722;2024-01-10T14:25:34;14.48;;;5.30;;